sensor_id;sensor_type;location;lat;lon;timestamp;P1;durP1;ratioP1;P2;durP2;ratioP2
38208;SDS011;24016;52.102;11.584;2023-05-01T00:01:31;12.90;;;5.90;;
38208;SDS011;24016;52.102;11.584;2023-05-01T00:03:57;10.65;;;5.50;;
38208;SDS011;24016;52.102;11.584;2023-05-01T00:06:22;12.45;;;6.85;;
38208;SDS011;24016;52.102;11.584;2023-05-01T00:08:48;9.80;;;5.90;;
38208;SDS011;24016;52.102;11.584;2023-05-01T00:11:13;10.55;;;7.05;;
38208;SDS011;24016;52.102;11.584;2023-05-01T00:13:39;11.90;;;7.72;;
38208;SDS011;24016;52.102;11.584;2023-05-01T00:16:08;11.23;;;6.30;;
38208;SDS011;24016;52.102;11.584;2023-05-01T00:18:36;13.20;;;7.43;;
38208;SDS011;24016;52.102;11.584;2023-05-01T00:21:01;12.60;;;7.35;;
38208;SDS011;24016;52.102;11.584;2023-05-01T00:23:27;12.13;;;6.90;;
38208;SDS011;24016;52.102;11.584;2023-05-01T00:25:52;13.50;;;7.10;;
38208;SDS011;24016;52.102;11.584;2023-05-01T00:28:18;8.88;;;6.35;;
38208;SDS011;24016;52.102;11.584;2023-05-01T00:30:44;12.10;;;7.22;;
38208;SDS011;24016;52.102;11.584;2023-05-01T00:33:09;14.38;;;8.13;;
38208;SDS011;24016;52.102;11.584;2023-05-01T00:35:35;11.35;;;7.32;;
38208;SDS011;24016;52.102;11.584;2023-05-01T00:38:01;15.57;;;7.38;;
38208;SDS011;24016;52.102;11.584;2023-05-01T00:40:26;15.88;;;7.43;;
38208;SDS011;24016;52.102;11.584;2023-05-01T00:42:52;11.30;;;7.22;;
38208;SDS011;24016;52.102;11.584;2023-05-01T00:45:18;12.18;;;7.53;;
38208;SDS011;24016;52.102;11.584;2023-05-01T00:47:44;15.32;;;7.63;;
38208;SDS011;24016;52.102;11.584;2023-05-01T00:50:10;13.18;;;7.68;;
38208;SDS011;24016;52.102;11.584;2023-05-01T00:52:36;12.45;;;8.20;;
38208;SDS011;24016;52.102;11.584;2023-05-01T00:55:03;16.25;;;8.38;;
38208;SDS011;24016;52.102;11.584;2023-05-01T00:57:30;13.80;;;7.90;;
38208;SDS011;24016;52.102;11.584;2023-05-01T00:59:56;11.27;;;8.43;;
38208;SDS011;24016;52.102;11.584;2023-05-01T01:02:22;15.10;;;8.40;;
38208;SDS011;24016;52.102;11.584;2023-05-01T01:04:47;12.02;;;8.10;;
38208;SDS011;24016;52.102;11.584;2023-05-01T01:07:17;14.73;;;7.97;;
38208;SDS011;24016;52.102;11.584;2023-05-01T01:10:01;14.60;;;8.43;;
38208;SDS011;24016;52.102;11.584;2023-05-01T01:12:38;11.70;;;8.45;;
38208;SDS011;24016;52.102;11.584;2023-05-01T01:15:17;15.45;;;7.95;;
38208;SDS011;24016;52.102;11.584;2023-05-01T01:18:07;13.45;;;8.40;;
38208;SDS011;24016;52.102;11.584;2023-05-01T01:20:53;13.27;;;8.45;;
38208;SDS011;24016;52.102;11.584;2023-05-01T01:35:07;13.88;;;8.98;;
38208;SDS011;24016;52.102;11.584;2023-05-01T01:37:40;14.00;;;9.13;;
38208;SDS011;24016;52.102;11.584;2023-05-01T01:40:13;11.77;;;8.90;;
38208;SDS011;24016;52.102;11.584;2023-05-01T01:42:44;13.80;;;9.15;;
38208;SDS011;24016;52.102;11.584;2023-05-01T01:45:17;15.53;;;9.57;;
38208;SDS011;24016;52.102;11.584;2023-05-01T01:47:47;14.25;;;8.95;;
38208;SDS011;24016;52.102;11.584;2023-05-01T01:50:14;12.77;;;8.95;;
38208;SDS011;24016;52.102;11.584;2023-05-01T01:52:42;13.88;;;8.85;;
38208;SDS011;24016;52.102;11.584;2023-05-01T01:55:11;15.38;;;8.55;;
38208;SDS011;24016;52.102;11.584;2023-05-01T01:57:38;15.00;;;8.50;;
38208;SDS011;24016;52.102;11.584;2023-05-01T02:00:08;16.40;;;9.60;;
38208;SDS011;24016;52.102;11.584;2023-05-01T02:02:35;14.18;;;8.70;;
38208;SDS011;24016;52.102;11.584;2023-05-01T02:05:02;14.75;;;9.05;;
38208;SDS011;24016;52.102;11.584;2023-05-01T02:07:30;15.38;;;9.27;;
38208;SDS011;24016;52.102;11.584;2023-05-01T02:09:57;16.42;;;9.90;;
38208;SDS011;24016;52.102;11.584;2023-05-01T02:12:25;19.33;;;10.63;;
38208;SDS011;24016;52.102;11.584;2023-05-01T02:14:51;14.27;;;8.80;;
38208;SDS011;24016;52.102;11.584;2023-05-01T02:17:18;14.80;;;9.25;;
38208;SDS011;24016;52.102;11.584;2023-05-01T02:19:45;15.48;;;9.13;;
38208;SDS011;24016;52.102;11.584;2023-05-01T02:22:10;15.63;;;10.05;;
38208;SDS011;24016;52.102;11.584;2023-05-01T02:24:37;13.45;;;9.63;;
38208;SDS011;24016;52.102;11.584;2023-05-01T02:27:07;15.60;;;9.68;;
38208;SDS011;24016;52.102;11.584;2023-05-01T02:29:39;17.83;;;10.00;;
38208;SDS011;24016;52.102;11.584;2023-05-01T02:32:05;13.02;;;8.88;;
38208;SDS011;24016;52.102;11.584;2023-05-01T02:34:33;14.07;;;9.43;;
38208;SDS011;24016;52.102;11.584;2023-05-01T02:36:59;16.27;;;9.07;;
38208;SDS011;24016;52.102;11.584;2023-05-01T02:39:25;12.57;;;9.52;;
38208;SDS011;24016;52.102;11.584;2023-05-01T02:41:51;16.35;;;10.73;;
38208;SDS011;24016;52.102;11.584;2023-05-01T02:44:18;15.00;;;9.82;;
38208;SDS011;24016;52.102;11.584;2023-05-01T02:46:44;13.00;;;9.57;;
38208;SDS011;24016;52.102;11.584;2023-05-01T02:49:12;15.15;;;9.35;;
38208;SDS011;24016;52.102;11.584;2023-05-01T02:51:38;14.15;;;9.85;;
38208;SDS011;24016;52.102;11.584;2023-05-01T02:54:04;15.23;;;9.95;;
38208;SDS011;24016;52.102;11.584;2023-05-01T02:56:31;16.17;;;9.38;;
38208;SDS011;24016;52.102;11.584;2023-05-01T02:58:56;17.20;;;10.32;;
38208;SDS011;24016;52.102;11.584;2023-05-01T03:01:22;18.77;;;11.23;;
38208;SDS011;24016;52.102;11.584;2023-05-01T03:03:47;16.15;;;10.32;;
38208;SDS011;24016;52.102;11.584;2023-05-01T03:06:13;13.00;;;10.10;;
38208;SDS011;24016;52.102;11.584;2023-05-01T03:08:39;13.73;;;9.70;;
38208;SDS011;24016;52.102;11.584;2023-05-01T03:11:05;19.85;;;9.95;;
38208;SDS011;24016;52.102;11.584;2023-05-01T03:13:31;16.85;;;10.43;;
38208;SDS011;24016;52.102;11.584;2023-05-01T03:15:57;12.00;;;9.82;;
38208;SDS011;24016;52.102;11.584;2023-05-01T03:18:23;13.88;;;10.13;;
38208;SDS011;24016;52.102;11.584;2023-05-01T03:20:54;16.65;;;10.43;;
38208;SDS011;24016;52.102;11.584;2023-05-01T03:23:23;18.00;;;9.95;;
38208;SDS011;24016;52.102;11.584;2023-05-01T03:25:49;14.48;;;10.38;;
38208;SDS011;24016;52.102;11.584;2023-05-01T03:28:15;17.35;;;10.63;;
38208;SDS011;24016;52.102;11.584;2023-05-01T03:30:41;17.02;;;10.48;;
38208;SDS011;24016;52.102;11.584;2023-05-01T03:33:07;16.55;;;10.55;;
38208;SDS011;24016;52.102;11.584;2023-05-01T03:35:33;21.55;;;10.20;;
38208;SDS011;24016;52.102;11.584;2023-05-01T03:37:58;14.63;;;10.20;;
38208;SDS011;24016;52.102;11.584;2023-05-01T03:40:24;15.57;;;10.30;;
38208;SDS011;24016;52.102;11.584;2023-05-01T03:42:49;15.60;;;9.70;;
38208;SDS011;24016;52.102;11.584;2023-05-01T03:45:15;18.60;;;10.20;;
38208;SDS011;24016;52.102;11.584;2023-05-01T03:47:40;18.15;;;10.63;;
38208;SDS011;24016;52.102;11.584;2023-05-01T03:50:06;16.02;;;10.40;;
38208;SDS011;24016;52.102;11.584;2023-05-01T03:52:33;15.82;;;10.45;;
38208;SDS011;24016;52.102;11.584;2023-05-01T03:54:58;15.85;;;10.13;;
38208;SDS011;24016;52.102;11.584;2023-05-01T03:57:24;21.30;;;11.90;;
38208;SDS011;24016;52.102;11.584;2023-05-01T03:59:50;15.73;;;10.45;;
38208;SDS011;24016;52.102;11.584;2023-05-01T04:02:17;19.30;;;11.02;;
38208;SDS011;24016;52.102;11.584;2023-05-01T04:04:42;14.80;;;10.18;;
38208;SDS011;24016;52.102;11.584;2023-05-01T04:07:08;16.45;;;10.82;;
38208;SDS011;24016;52.102;11.584;2023-05-01T04:09:34;13.45;;;10.10;;
38208;SDS011;24016;52.102;11.584;2023-05-01T04:11:59;18.80;;;10.38;;
38208;SDS011;24016;52.102;11.584;2023-05-01T04:14:26;19.02;;;10.57;;
38208;SDS011;24016;52.102;11.584;2023-05-01T04:16:52;15.82;;;10.73;;
38208;SDS011;24016;52.102;11.584;2023-05-01T04:19:18;15.45;;;11.30;;
38208;SDS011;24016;52.102;11.584;2023-05-01T04:21:45;15.82;;;10.60;;
38208;SDS011;24016;52.102;11.584;2023-05-01T04:24:11;17.42;;;11.18;;
38208;SDS011;24016;52.102;11.584;2023-05-01T04:26:37;22.52;;;12.48;;
38208;SDS011;24016;52.102;11.584;2023-05-01T04:29:03;21.17;;;13.13;;
38208;SDS011;24016;52.102;11.584;2023-05-01T04:31:28;19.05;;;12.13;;
38208;SDS011;24016;52.102;11.584;2023-05-01T04:33:54;18.95;;;12.40;;
38208;SDS011;24016;52.102;11.584;2023-05-01T04:36:20;15.95;;;11.45;;
38208;SDS011;24016;52.102;11.584;2023-05-01T04:38:45;15.90;;;12.05;;
38208;SDS011;24016;52.102;11.584;2023-05-01T04:41:11;17.50;;;12.30;;
38208;SDS011;24016;52.102;11.584;2023-05-01T04:43:37;16.42;;;11.10;;
38208;SDS011;24016;52.102;11.584;2023-05-01T04:46:03;16.27;;;11.13;;
38208;SDS011;24016;52.102;11.584;2023-05-01T04:48:28;19.25;;;10.63;;
38208;SDS011;24016;52.102;11.584;2023-05-01T04:50:54;13.27;;;10.15;;
38208;SDS011;24016;52.102;11.584;2023-05-01T04:53:19;16.73;;;10.13;;
38208;SDS011;24016;52.102;11.584;2023-05-01T04:55:45;14.15;;;9.85;;
38208;SDS011;24016;52.102;11.584;2023-05-01T04:58:10;12.68;;;9.95;;
38208;SDS011;24016;52.102;11.584;2023-05-01T05:00:36;14.15;;;9.48;;
38208;SDS011;24016;52.102;11.584;2023-05-01T05:03:01;16.02;;;9.88;;
38208;SDS011;24016;52.102;11.584;2023-05-01T05:05:27;12.25;;;9.45;;
38208;SDS011;24016;52.102;11.584;2023-05-01T05:07:53;16.75;;;9.45;;
38208;SDS011;24016;52.102;11.584;2023-05-01T05:10:18;15.70;;;9.43;;
38208;SDS011;24016;52.102;11.584;2023-05-01T05:12:44;13.00;;;8.98;;
38208;SDS011;24016;52.102;11.584;2023-05-01T05:15:09;13.75;;;9.15;;
38208;SDS011;24016;52.102;11.584;2023-05-01T05:17:35;13.18;;;8.85;;
38208;SDS011;24016;52.102;11.584;2023-05-01T05:20:00;11.13;;;7.10;;
38208;SDS011;24016;52.102;11.584;2023-05-01T05:22:26;13.07;;;7.57;;
38208;SDS011;24016;52.102;11.584;2023-05-01T05:24:52;10.55;;;6.45;;
38208;SDS011;24016;52.102;11.584;2023-05-01T05:27:19;12.82;;;7.32;;
38208;SDS011;24016;52.102;11.584;2023-05-01T05:29:45;10.85;;;7.38;;
38208;SDS011;24016;52.102;11.584;2023-05-01T05:32:10;15.95;;;7.47;;
38208;SDS011;24016;52.102;11.584;2023-05-01T05:34:37;11.65;;;7.53;;
38208;SDS011;24016;52.102;11.584;2023-05-01T05:37:03;13.85;;;8.10;;
38208;SDS011;24016;52.102;11.584;2023-05-01T05:39:28;12.63;;;7.30;;
38208;SDS011;24016;52.102;11.584;2023-05-01T05:41:55;18.33;;;8.77;;
38208;SDS011;24016;52.102;11.584;2023-05-01T05:44:21;9.93;;;6.43;;
38208;SDS011;24016;52.102;11.584;2023-05-01T05:46:46;8.73;;;6.10;;
38208;SDS011;24016;52.102;11.584;2023-05-01T05:49:12;9.13;;;5.60;;
38208;SDS011;24016;52.102;11.584;2023-05-01T05:51:37;7.15;;;5.22;;
38208;SDS011;24016;52.102;11.584;2023-05-01T05:54:03;8.88;;;5.10;;
38208;SDS011;24016;52.102;11.584;2023-05-01T05:56:28;9.70;;;5.07;;
38208;SDS011;24016;52.102;11.584;2023-05-01T05:58:54;11.80;;;5.45;;
38208;SDS011;24016;52.102;11.584;2023-05-01T06:01:19;8.82;;;5.40;;
38208;SDS011;24016;52.102;11.584;2023-05-01T06:03:45;10.77;;;5.88;;
38208;SDS011;24016;52.102;11.584;2023-05-01T06:06:10;11.30;;;5.65;;
38208;SDS011;24016;52.102;11.584;2023-05-01T06:08:36;8.27;;;5.28;;
38208;SDS011;24016;52.102;11.584;2023-05-01T06:11:02;9.65;;;5.63;;
38208;SDS011;24016;52.102;11.584;2023-05-01T06:13:27;10.85;;;5.72;;
38208;SDS011;24016;52.102;11.584;2023-05-01T06:15:53;13.10;;;5.75;;
38208;SDS011;24016;52.102;11.584;2023-05-01T06:18:19;9.95;;;5.72;;
38208;SDS011;24016;52.102;11.584;2023-05-01T06:20:44;9.07;;;5.65;;
38208;SDS011;24016;52.102;11.584;2023-05-01T06:23:11;8.68;;;5.28;;
38208;SDS011;24016;52.102;11.584;2023-05-01T06:25:37;14.27;;;6.32;;
38208;SDS011;24016;52.102;11.584;2023-05-01T06:28:03;10.73;;;6.45;;
38208;SDS011;24016;52.102;11.584;2023-05-01T06:30:29;15.40;;;8.30;;
38208;SDS011;24016;52.102;11.584;2023-05-01T06:32:55;12.35;;;6.60;;
38208;SDS011;24016;52.102;11.584;2023-05-01T06:35:20;14.15;;;6.68;;
38208;SDS011;24016;52.102;11.584;2023-05-01T06:37:46;11.13;;;6.40;;
38208;SDS011;24016;52.102;11.584;2023-05-01T06:40:12;12.90;;;6.75;;
38208;SDS011;24016;52.102;11.584;2023-05-01T06:42:38;11.45;;;7.30;;
38208;SDS011;24016;52.102;11.584;2023-05-01T06:45:04;12.93;;;8.60;;
38208;SDS011;24016;52.102;11.584;2023-05-01T06:47:31;11.75;;;7.93;;
38208;SDS011;24016;52.102;11.584;2023-05-01T06:49:57;18.45;;;9.10;;
38208;SDS011;24016;52.102;11.584;2023-05-01T06:52:22;12.98;;;8.85;;
38208;SDS011;24016;52.102;11.584;2023-05-01T06:54:49;16.15;;;9.93;;
38208;SDS011;24016;52.102;11.584;2023-05-01T06:57:14;19.02;;;11.23;;
38208;SDS011;24016;52.102;11.584;2023-05-01T06:59:40;19.25;;;10.80;;
38208;SDS011;24016;52.102;11.584;2023-05-01T07:02:05;15.10;;;10.20;;
38208;SDS011;24016;52.102;11.584;2023-05-01T07:04:31;20.65;;;11.48;;
38208;SDS011;24016;52.102;11.584;2023-05-01T07:06:56;19.30;;;10.60;;
38208;SDS011;24016;52.102;11.584;2023-05-01T07:09:22;20.35;;;10.00;;
38208;SDS011;24016;52.102;11.584;2023-05-01T07:11:48;18.13;;;10.07;;
38208;SDS011;24016;52.102;11.584;2023-05-01T07:14:13;13.75;;;9.88;;
38208;SDS011;24016;52.102;11.584;2023-05-01T07:16:39;18.05;;;10.23;;
38208;SDS011;24016;52.102;11.584;2023-05-01T07:19:05;17.92;;;9.88;;
38208;SDS011;24016;52.102;11.584;2023-05-01T07:21:30;16.48;;;9.68;;
38208;SDS011;24016;52.102;11.584;2023-05-01T07:23:56;16.05;;;12.45;;
38208;SDS011;24016;52.102;11.584;2023-05-01T07:26:23;22.48;;;13.18;;
38208;SDS011;24016;52.102;11.584;2023-05-01T07:28:50;21.83;;;14.60;;
38208;SDS011;24016;52.102;11.584;2023-05-01T07:31:16;20.95;;;15.82;;
38208;SDS011;24016;52.102;11.584;2023-05-01T07:33:41;23.70;;;17.83;;
38208;SDS011;24016;52.102;11.584;2023-05-01T07:36:07;24.30;;;18.15;;
38208;SDS011;24016;52.102;11.584;2023-05-01T07:38:33;27.40;;;17.33;;
38208;SDS011;24016;52.102;11.584;2023-05-01T07:40:58;24.63;;;15.52;;
38208;SDS011;24016;52.102;11.584;2023-05-01T07:43:24;21.83;;;14.55;;
38208;SDS011;24016;52.102;11.584;2023-05-01T07:45:56;21.83;;;15.25;;
38208;SDS011;24016;52.102;11.584;2023-05-01T07:48:25;19.55;;;14.15;;
38208;SDS011;24016;52.102;11.584;2023-05-01T07:50:52;21.55;;;13.18;;
38208;SDS011;24016;52.102;11.584;2023-05-01T07:53:18;19.85;;;13.85;;
38208;SDS011;24016;52.102;11.584;2023-05-01T07:55:44;20.60;;;13.05;;
38208;SDS011;24016;52.102;11.584;2023-05-01T07:58:10;20.35;;;14.05;;
38208;SDS011;24016;52.102;11.584;2023-05-01T08:00:35;20.17;;;13.07;;
38208;SDS011;24016;52.102;11.584;2023-05-01T08:03:01;21.33;;;13.48;;
38208;SDS011;24016;52.102;11.584;2023-05-01T08:05:27;20.63;;;13.93;;
38208;SDS011;24016;52.102;11.584;2023-05-01T08:07:52;20.52;;;13.07;;
38208;SDS011;24016;52.102;11.584;2023-05-01T08:10:18;20.05;;;13.13;;
38208;SDS011;24016;52.102;11.584;2023-05-01T08:12:43;19.23;;;13.00;;
38208;SDS011;24016;52.102;11.584;2023-05-01T08:15:09;21.80;;;13.27;;
38208;SDS011;24016;52.102;11.584;2023-05-01T08:17:34;18.50;;;13.10;;
38208;SDS011;24016;52.102;11.584;2023-05-01T08:20:01;18.63;;;13.13;;
38208;SDS011;24016;52.102;11.584;2023-05-01T08:22:27;16.92;;;12.57;;
38208;SDS011;24016;52.102;11.584;2023-05-01T08:24:53;16.42;;;11.93;;
38208;SDS011;24016;52.102;11.584;2023-05-01T08:27:20;17.27;;;11.60;;
38208;SDS011;24016;52.102;11.584;2023-05-01T08:29:45;18.95;;;12.05;;
38208;SDS011;24016;52.102;11.584;2023-05-01T08:32:11;16.85;;;12.73;;
38208;SDS011;24016;52.102;11.584;2023-05-01T08:34:36;15.07;;;12.20;;
38208;SDS011;24016;52.102;11.584;2023-05-01T08:37:02;19.45;;;12.80;;
38208;SDS011;24016;52.102;11.584;2023-05-01T08:39:27;18.92;;;12.57;;
38208;SDS011;24016;52.102;11.584;2023-05-01T08:41:53;19.17;;;12.85;;
38208;SDS011;24016;52.102;11.584;2023-05-01T08:44:21;17.17;;;12.15;;
38208;SDS011;24016;52.102;11.584;2023-05-01T08:47:06;19.48;;;12.45;;
38208;SDS011;24016;52.102;11.584;2023-05-01T08:49:40;16.55;;;12.55;;
38208;SDS011;24016;52.102;11.584;2023-05-01T08:52:07;17.42;;;12.25;;
38208;SDS011;24016;52.102;11.584;2023-05-01T08:54:34;22.83;;;11.88;;
38208;SDS011;24016;52.102;11.584;2023-05-01T08:57:03;16.35;;;11.65;;
38208;SDS011;24016;52.102;11.584;2023-05-01T08:59:32;15.65;;;11.80;;
38208;SDS011;24016;52.102;11.584;2023-05-01T09:02:00;13.95;;;11.10;;
38208;SDS011;24016;52.102;11.584;2023-05-01T09:04:31;19.02;;;12.43;;
38208;SDS011;24016;52.102;11.584;2023-05-01T09:06:58;17.48;;;11.63;;
38208;SDS011;24016;52.102;11.584;2023-05-01T09:09:25;18.00;;;12.13;;
38208;SDS011;24016;52.102;11.584;2023-05-01T09:11:52;17.70;;;11.93;;
38208;SDS011;24016;52.102;11.584;2023-05-01T09:14:29;16.98;;;11.07;;
38208;SDS011;24016;52.102;11.584;2023-05-01T09:16:55;15.05;;;11.63;;
38208;SDS011;24016;52.102;11.584;2023-05-01T09:19:21;14.27;;;10.88;;
38208;SDS011;24016;52.102;11.584;2023-05-01T09:21:47;15.77;;;10.70;;
38208;SDS011;24016;52.102;11.584;2023-05-01T09:24:12;14.90;;;10.80;;
38208;SDS011;24016;52.102;11.584;2023-05-01T09:26:38;16.02;;;11.32;;
38208;SDS011;24016;52.102;11.584;2023-05-01T09:29:06;13.05;;;10.05;;
38208;SDS011;24016;52.102;11.584;2023-05-01T09:31:33;13.52;;;9.75;;
38208;SDS011;24016;52.102;11.584;2023-05-01T09:33:59;15.68;;;10.60;;
38208;SDS011;24016;52.102;11.584;2023-05-01T09:36:30;13.50;;;9.75;;
38208;SDS011;24016;52.102;11.584;2023-05-01T09:38:57;16.45;;;9.30;;
38208;SDS011;24016;52.102;11.584;2023-05-01T09:41:26;15.23;;;8.85;;
38208;SDS011;24016;52.102;11.584;2023-05-01T09:43:53;11.80;;;6.78;;
38208;SDS011;24016;52.102;11.584;2023-05-01T09:46:20;10.45;;;7.80;;
38208;SDS011;24016;52.102;11.584;2023-05-01T09:48:54;14.10;;;7.18;;
38208;SDS011;24016;52.102;11.584;2023-05-01T09:51:25;10.57;;;6.72;;
38208;SDS011;24016;52.102;11.584;2023-05-01T09:53:50;11.25;;;6.95;;
38208;SDS011;24016;52.102;11.584;2023-05-01T09:56:17;10.63;;;5.78;;
38208;SDS011;24016;52.102;11.584;2023-05-01T09:58:43;9.95;;;6.05;;
38208;SDS011;24016;52.102;11.584;2023-05-01T10:01:09;10.45;;;6.40;;
38208;SDS011;24016;52.102;11.584;2023-05-01T10:03:35;10.88;;;6.97;;
38208;SDS011;24016;52.102;11.584;2023-05-01T10:06:01;11.20;;;6.72;;
38208;SDS011;24016;52.102;11.584;2023-05-01T10:08:44;10.57;;;6.30;;
38208;SDS011;24016;52.102;11.584;2023-05-01T10:11:10;10.20;;;6.65;;
38208;SDS011;24016;52.102;11.584;2023-05-01T10:13:36;10.18;;;6.72;;
38208;SDS011;24016;52.102;11.584;2023-05-01T10:16:02;10.35;;;7.22;;
38208;SDS011;24016;52.102;11.584;2023-05-01T10:18:32;10.38;;;6.85;;
38208;SDS011;24016;52.102;11.584;2023-05-01T10:20:59;12.13;;;7.72;;
38208;SDS011;24016;52.102;11.584;2023-05-01T10:23:24;11.80;;;8.93;;
38208;SDS011;24016;52.102;11.584;2023-05-01T10:25:51;10.80;;;8.57;;
38208;SDS011;24016;52.102;11.584;2023-05-01T10:28:18;12.25;;;7.72;;
38208;SDS011;24016;52.102;11.584;2023-05-01T10:30:45;13.93;;;9.20;;
38208;SDS011;24016;52.102;11.584;2023-05-01T10:33:14;12.52;;;7.57;;
38208;SDS011;24016;52.102;11.584;2023-05-01T10:35:40;10.38;;;7.53;;
38208;SDS011;24016;52.102;11.584;2023-05-01T10:38:12;13.00;;;8.48;;
38208;SDS011;24016;52.102;11.584;2023-05-01T10:40:46;12.18;;;8.32;;
38208;SDS011;24016;52.102;11.584;2023-05-01T10:43:22;11.27;;;8.00;;
38208;SDS011;24016;52.102;11.584;2023-05-01T10:51:17;12.52;;;7.93;;
38208;SDS011;24016;52.102;11.584;2023-05-01T10:53:45;12.50;;;8.57;;
38208;SDS011;24016;52.102;11.584;2023-05-01T10:58:57;9.98;;;7.03;;
38208;SDS011;24016;52.102;11.584;2023-05-01T11:01:34;11.27;;;7.60;;
38208;SDS011;24016;52.102;11.584;2023-05-01T11:04:08;11.82;;;8.52;;
38208;SDS011;24016;52.102;11.584;2023-05-01T11:09:45;11.55;;;8.27;;
38208;SDS011;24016;52.102;11.584;2023-05-01T11:12:13;13.98;;;7.10;;
38208;SDS011;24016;52.102;11.584;2023-05-01T11:15:00;11.07;;;8.00;;
38208;SDS011;24016;52.102;11.584;2023-05-01T11:20:05;13.27;;;8.10;;
38208;SDS011;24016;52.102;11.584;2023-05-01T11:22:32;10.68;;;7.35;;
38208;SDS011;24016;52.102;11.584;2023-05-01T11:24:59;18.98;;;6.75;;
38208;SDS011;24016;52.102;11.584;2023-05-01T11:27:25;10.63;;;6.47;;
38208;SDS011;24016;52.102;11.584;2023-05-01T11:29:52;9.57;;;6.78;;
38208;SDS011;24016;52.102;11.584;2023-05-01T11:32:20;9.00;;;6.45;;
38208;SDS011;24016;52.102;11.584;2023-05-01T11:34:49;11.70;;;6.88;;
38208;SDS011;24016;52.102;11.584;2023-05-01T11:37:15;9.13;;;6.30;;
38208;SDS011;24016;52.102;11.584;2023-05-01T11:39:50;9.13;;;6.25;;
38208;SDS011;24016;52.102;11.584;2023-05-01T11:42:20;11.48;;;6.35;;
38208;SDS011;24016;52.102;11.584;2023-05-01T11:45:04;8.18;;;5.93;;
38208;SDS011;24016;52.102;11.584;2023-05-01T11:47:34;9.23;;;5.93;;
38208;SDS011;24016;52.102;11.584;2023-05-01T11:50:00;7.28;;;5.70;;
38208;SDS011;24016;52.102;11.584;2023-05-01T11:52:27;8.32;;;5.72;;
38208;SDS011;24016;52.102;11.584;2023-05-01T11:54:53;8.00;;;5.32;;
38208;SDS011;24016;52.102;11.584;2023-05-01T11:57:18;8.02;;;5.57;;
38208;SDS011;24016;52.102;11.584;2023-05-01T11:59:47;7.60;;;5.45;;
38208;SDS011;24016;52.102;11.584;2023-05-01T12:02:19;7.68;;;5.80;;
38208;SDS011;24016;52.102;11.584;2023-05-01T12:04:45;9.02;;;5.80;;
38208;SDS011;24016;52.102;11.584;2023-05-01T12:07:22;9.23;;;5.47;;
38208;SDS011;24016;52.102;11.584;2023-05-01T12:09:48;9.57;;;5.03;;
38208;SDS011;24016;52.102;11.584;2023-05-01T12:12:15;8.45;;;5.40;;
38208;SDS011;24016;52.102;11.584;2023-05-01T12:14:41;8.38;;;5.40;;
38208;SDS011;24016;52.102;11.584;2023-05-01T12:17:07;9.88;;;5.57;;
38208;SDS011;24016;52.102;11.584;2023-05-01T12:19:41;7.93;;;4.80;;
38208;SDS011;24016;52.102;11.584;2023-05-01T12:22:12;6.70;;;4.57;;
38208;SDS011;24016;52.102;11.584;2023-05-01T12:24:47;7.32;;;4.60;;
38208;SDS011;24016;52.102;11.584;2023-05-01T12:27:15;9.43;;;4.50;;
38208;SDS011;24016;52.102;11.584;2023-05-01T12:29:41;9.50;;;4.53;;
38208;SDS011;24016;52.102;11.584;2023-05-01T12:32:08;7.32;;;4.68;;
38208;SDS011;24016;52.102;11.584;2023-05-01T12:34:34;8.48;;;4.97;;
38208;SDS011;24016;52.102;11.584;2023-05-01T12:37:00;8.43;;;4.70;;
38208;SDS011;24016;52.102;11.584;2023-05-01T12:39:30;7.28;;;4.80;;
38208;SDS011;24016;52.102;11.584;2023-05-01T12:42:02;7.07;;;4.38;;
38208;SDS011;24016;52.102;11.584;2023-05-01T12:44:28;8.90;;;5.15;;
38208;SDS011;24016;52.102;11.584;2023-05-01T12:46:55;8.20;;;4.50;;
38208;SDS011;24016;52.102;11.584;2023-05-01T12:49:23;5.53;;;4.40;;
38208;SDS011;24016;52.102;11.584;2023-05-01T12:51:50;7.03;;;4.25;;
38208;SDS011;24016;52.102;11.584;2023-05-01T12:54:18;9.90;;;4.53;;
38208;SDS011;24016;52.102;11.584;2023-05-01T12:56:44;6.45;;;4.50;;
38208;SDS011;24016;52.102;11.584;2023-05-01T12:59:20;7.80;;;4.20;;
38208;SDS011;24016;52.102;11.584;2023-05-01T13:01:48;7.75;;;4.72;;
38208;SDS011;24016;52.102;11.584;2023-05-01T13:04:32;6.45;;;4.15;;
38208;SDS011;24016;52.102;11.584;2023-05-01T13:06:59;6.47;;;4.10;;
38208;SDS011;24016;52.102;11.584;2023-05-01T13:09:26;5.82;;;4.10;;
38208;SDS011;24016;52.102;11.584;2023-05-01T13:12:01;7.35;;;4.13;;
38208;SDS011;24016;52.102;11.584;2023-05-01T13:14:39;5.97;;;4.00;;
38208;SDS011;24016;52.102;11.584;2023-05-01T13:17:06;5.15;;;3.50;;
38208;SDS011;24016;52.102;11.584;2023-05-01T13:19:33;7.40;;;3.58;;
38208;SDS011;24016;52.102;11.584;2023-05-01T13:21:59;6.90;;;3.70;;
38208;SDS011;24016;52.102;11.584;2023-05-01T13:24:37;5.82;;;3.70;;
38208;SDS011;24016;52.102;11.584;2023-05-01T13:27:04;5.72;;;3.38;;
38208;SDS011;24016;52.102;11.584;2023-05-01T13:29:30;5.88;;;3.55;;
38208;SDS011;24016;52.102;11.584;2023-05-01T13:31:56;5.32;;;3.72;;
38208;SDS011;24016;52.102;11.584;2023-05-01T13:34:29;5.25;;;3.63;;
38208;SDS011;24016;52.102;11.584;2023-05-01T13:36:57;4.68;;;3.40;;
38208;SDS011;24016;52.102;11.584;2023-05-01T13:39:23;5.78;;;3.70;;
38208;SDS011;24016;52.102;11.584;2023-05-01T13:41:49;6.20;;;3.65;;
38208;SDS011;24016;52.102;11.584;2023-05-01T13:44:15;5.85;;;3.65;;
38208;SDS011;24016;52.102;11.584;2023-05-01T13:46:42;5.22;;;3.53;;
38208;SDS011;24016;52.102;11.584;2023-05-01T13:49:07;5.45;;;3.50;;
38208;SDS011;24016;52.102;11.584;2023-05-01T13:51:33;7.90;;;4.50;;
38208;SDS011;24016;52.102;11.584;2023-05-01T13:54:02;7.53;;;3.97;;
38208;SDS011;24016;52.102;11.584;2023-05-01T13:56:28;7.00;;;4.00;;
38208;SDS011;24016;52.102;11.584;2023-05-01T13:58:57;5.13;;;3.70;;
38208;SDS011;24016;52.102;11.584;2023-05-01T14:01:23;7.63;;;4.30;;
38208;SDS011;24016;52.102;11.584;2023-05-01T14:03:49;7.63;;;4.05;;
38208;SDS011;24016;52.102;11.584;2023-05-01T14:06:16;4.47;;;3.38;;
38208;SDS011;24016;52.102;11.584;2023-05-01T14:08:43;6.55;;;3.50;;
38208;SDS011;24016;52.102;11.584;2023-05-01T14:11:09;7.28;;;3.50;;
38208;SDS011;24016;52.102;11.584;2023-05-01T14:13:35;5.80;;;3.38;;
38208;SDS011;24016;52.102;11.584;2023-05-01T14:16:05;5.05;;;3.38;;
38208;SDS011;24016;52.102;11.584;2023-05-01T14:18:34;6.20;;;3.63;;
38208;SDS011;24016;52.102;11.584;2023-05-01T14:21:00;7.40;;;3.47;;
38208;SDS011;24016;52.102;11.584;2023-05-01T14:23:26;6.25;;;3.33;;
38208;SDS011;24016;52.102;11.584;2023-05-01T14:25:52;3.90;;;2.78;;
38208;SDS011;24016;52.102;11.584;2023-05-01T14:28:17;3.55;;;2.63;;
38208;SDS011;24016;52.102;11.584;2023-05-01T14:30:43;4.55;;;3.20;;
38208;SDS011;24016;52.102;11.584;2023-05-01T14:33:12;6.18;;;3.42;;
38208;SDS011;24016;52.102;11.584;2023-05-01T14:35:48;5.28;;;3.58;;
38208;SDS011;24016;52.102;11.584;2023-05-01T14:38:15;5.63;;;3.53;;
38208;SDS011;24016;52.102;11.584;2023-05-01T14:40:42;7.28;;;3.58;;
38208;SDS011;24016;52.102;11.584;2023-05-01T14:43:09;7.03;;;3.90;;
38208;SDS011;24016;52.102;11.584;2023-05-01T14:45:40;5.72;;;3.75;;
38208;SDS011;24016;52.102;11.584;2023-05-01T14:48:07;5.38;;;4.18;;